sensor_id;sensor_type;location;lat;lon;timestamp;P1;durP1;ratioP1;P2;durP2;ratioP2
18659;SDS011;9459;50.254;19.014;2023-04-25T00:02:07;9.90;;;6.28;;
18659;SDS011;9459;50.254;19.014;2023-04-25T00:04:36;8.15;;;5.68;;
18659;SDS011;9459;50.254;19.014;2023-04-25T00:07:06;8.85;;;6.03;;
18659;SDS011;9459;50.254;19.014;2023-04-25T00:09:34;7.90;;;6.05;;
18659;SDS011;9459;50.254;19.014;2023-04-25T00:12:03;8.00;;;6.35;;
18659;SDS011;9459;50.254;19.014;2023-04-25T00:14:31;7.93;;;6.47;;
18659;SDS011;9459;50.254;19.014;2023-04-25T00:17:02;9.02;;;6.90;;
18659;SDS011;9459;50.254;19.014;2023-04-25T00:19:31;9.07;;;6.38;;
18659;SDS011;9459;50.254;19.014;2023-04-25T00:21:59;10.23;;;7.43;;
18659;SDS011;9459;50.254;19.014;2023-04-25T00:24:29;11.27;;;7.95;;
18659;SDS011;9459;50.254;19.014;2023-04-25T00:26:57;11.60;;;8.55;;
18659;SDS011;9459;50.254;19.014;2023-04-25T00:29:25;11.07;;;8.55;;
18659;SDS011;9459;50.254;19.014;2023-04-25T00:31:53;9.95;;;7.85;;
18659;SDS011;9459;50.254;19.014;2023-04-25T00:34:22;9.98;;;7.32;;
18659;SDS011;9459;50.254;19.014;2023-04-25T00:36:50;9.77;;;7.93;;
18659;SDS011;9459;50.254;19.014;2023-04-25T00:39:19;9.20;;;8.18;;
18659;SDS011;9459;50.254;19.014;2023-04-25T00:41:48;10.20;;;8.55;;
18659;SDS011;9459;50.254;19.014;2023-04-25T00:44:20;9.48;;;7.53;;
18659;SDS011;9459;50.254;19.014;2023-04-25T00:46:48;8.50;;;7.50;;
18659;SDS011;9459;50.254;19.014;2023-04-25T00:49:17;10.00;;;9.00;;
18659;SDS011;9459;50.254;19.014;2023-04-25T00:51:45;9.93;;;8.77;;
18659;SDS011;9459;50.254;19.014;2023-04-25T00:54:14;10.73;;;9.52;;
18659;SDS011;9459;50.254;19.014;2023-04-25T00:56:42;10.48;;;9.05;;
18659;SDS011;9459;50.254;19.014;2023-04-25T00:59:13;11.88;;;9.50;;
18659;SDS011;9459;50.254;19.014;2023-04-25T01:01:42;12.05;;;9.93;;
18659;SDS011;9459;50.254;19.014;2023-04-25T01:04:11;11.85;;;9.90;;
18659;SDS011;9459;50.254;19.014;2023-04-25T01:06:39;10.40;;;9.23;;
18659;SDS011;9459;50.254;19.014;2023-04-25T01:09:08;13.00;;;9.23;;
18659;SDS011;9459;50.254;19.014;2023-04-25T01:11:37;13.13;;;9.65;;
18659;SDS011;9459;50.254;19.014;2023-04-25T01:14:07;12.38;;;9.32;;
18659;SDS011;9459;50.254;19.014;2023-04-25T01:16:36;12.38;;;9.65;;
18659;SDS011;9459;50.254;19.014;2023-04-25T01:19:06;10.43;;;7.90;;
18659;SDS011;9459;50.254;19.014;2023-04-25T01:21:39;13.38;;;9.40;;
18659;SDS011;9459;50.254;19.014;2023-04-25T01:24:07;12.07;;;9.13;;
18659;SDS011;9459;50.254;19.014;2023-04-25T01:26:36;13.27;;;9.77;;
18659;SDS011;9459;50.254;19.014;2023-04-25T01:29:07;12.13;;;8.68;;
18659;SDS011;9459;50.254;19.014;2023-04-25T01:31:35;13.35;;;9.43;;
18659;SDS011;9459;50.254;19.014;2023-04-25T01:34:04;12.88;;;9.93;;
18659;SDS011;9459;50.254;19.014;2023-04-25T01:36:32;16.33;;;8.90;;
18659;SDS011;9459;50.254;19.014;2023-04-25T01:39:03;13.15;;;8.35;;
18659;SDS011;9459;50.254;19.014;2023-04-25T01:41:31;12.70;;;8.50;;
18659;SDS011;9459;50.254;19.014;2023-04-25T01:44:01;16.00;;;9.85;;
18659;SDS011;9459;50.254;19.014;2023-04-25T01:46:29;13.35;;;8.45;;
18659;SDS011;9459;50.254;19.014;2023-04-25T01:48:58;8.40;;;6.80;;
18659;SDS011;9459;50.254;19.014;2023-04-25T01:51:26;11.27;;;7.03;;
18659;SDS011;9459;50.254;19.014;2023-04-25T01:53:55;8.55;;;6.32;;
18659;SDS011;9459;50.254;19.014;2023-04-25T01:58:59;11.20;;;6.20;;
18659;SDS011;9459;50.254;19.014;2023-04-25T02:01:27;9.93;;;6.60;;
18659;SDS011;9459;50.254;19.014;2023-04-25T02:03:55;8.88;;;6.38;;
18659;SDS011;9459;50.254;19.014;2023-04-25T02:06:24;9.00;;;6.07;;
18659;SDS011;9459;50.254;19.014;2023-04-25T02:08:52;8.05;;;5.80;;
18659;SDS011;9459;50.254;19.014;2023-04-25T02:11:20;10.52;;;6.00;;
18659;SDS011;9459;50.254;19.014;2023-04-25T02:13:50;10.40;;;5.88;;
18659;SDS011;9459;50.254;19.014;2023-04-25T02:16:18;8.57;;;5.53;;
18659;SDS011;9459;50.254;19.014;2023-04-25T02:18:47;7.45;;;5.43;;
18659;SDS011;9459;50.254;19.014;2023-04-25T02:21:15;8.15;;;5.90;;
18659;SDS011;9459;50.254;19.014;2023-04-25T02:23:44;6.75;;;5.50;;
18659;SDS011;9459;50.254;19.014;2023-04-25T02:26:15;10.43;;;6.70;;
18659;SDS011;9459;50.254;19.014;2023-04-25T02:28:44;11.90;;;7.47;;
18659;SDS011;9459;50.254;19.014;2023-04-25T02:31:13;8.77;;;5.85;;
18659;SDS011;9459;50.254;19.014;2023-04-25T02:33:42;7.15;;;5.72;;
18659;SDS011;9459;50.254;19.014;2023-04-25T02:36:10;8.35;;;5.63;;
18659;SDS011;9459;50.254;19.014;2023-04-25T02:38:39;7.93;;;5.00;;
18659;SDS011;9459;50.254;19.014;2023-04-25T02:41:07;5.40;;;4.75;;
18659;SDS011;9459;50.254;19.014;2023-04-25T02:43:35;7.20;;;4.55;;
18659;SDS011;9459;50.254;19.014;2023-04-25T02:46:03;7.78;;;4.90;;
18659;SDS011;9459;50.254;19.014;2023-04-25T02:48:33;9.82;;;5.90;;
18659;SDS011;9459;50.254;19.014;2023-04-25T02:51:02;9.05;;;5.80;;
18659;SDS011;9459;50.254;19.014;2023-04-25T02:53:30;8.05;;;5.63;;
18659;SDS011;9459;50.254;19.014;2023-04-25T02:55:59;10.18;;;6.03;;
18659;SDS011;9459;50.254;19.014;2023-04-25T02:58:27;7.78;;;5.25;;
18659;SDS011;9459;50.254;19.014;2023-04-25T03:00:55;9.30;;;5.65;;
18659;SDS011;9459;50.254;19.014;2023-04-25T03:03:24;7.70;;;5.35;;
18659;SDS011;9459;50.254;19.014;2023-04-25T03:05:53;7.45;;;5.80;;
18659;SDS011;9459;50.254;19.014;2023-04-25T03:08:22;7.07;;;5.22;;
18659;SDS011;9459;50.254;19.014;2023-04-25T03:10:51;8.10;;;4.85;;
18659;SDS011;9459;50.254;19.014;2023-04-25T03:13:22;6.63;;;5.05;;
18659;SDS011;9459;50.254;19.014;2023-04-25T03:15:53;6.30;;;4.05;;
18659;SDS011;9459;50.254;19.014;2023-04-25T03:18:22;5.88;;;4.20;;
18659;SDS011;9459;50.254;19.014;2023-04-25T03:20:50;4.30;;;3.85;;
18659;SDS011;9459;50.254;19.014;2023-04-25T03:23:20;5.47;;;3.95;;
18659;SDS011;9459;50.254;19.014;2023-04-25T03:25:48;4.45;;;3.78;;
18659;SDS011;9459;50.254;19.014;2023-04-25T03:28:17;5.90;;;3.92;;
18659;SDS011;9459;50.254;19.014;2023-04-25T03:30:45;7.20;;;3.92;;
18659;SDS011;9459;50.254;19.014;2023-04-25T03:33:13;7.07;;;4.00;;
18659;SDS011;9459;50.254;19.014;2023-04-25T03:35:42;5.72;;;3.72;;
18659;SDS011;9459;50.254;19.014;2023-04-25T03:38:10;4.10;;;3.70;;
18659;SDS011;9459;50.254;19.014;2023-04-25T03:40:40;4.20;;;3.50;;
18659;SDS011;9459;50.254;19.014;2023-04-25T03:43:08;5.85;;;4.65;;
18659;SDS011;9459;50.254;19.014;2023-04-25T03:45:36;5.22;;;4.60;;
18659;SDS011;9459;50.254;19.014;2023-04-25T03:48:05;8.98;;;4.57;;
18659;SDS011;9459;50.254;19.014;2023-04-25T03:50:33;5.95;;;3.20;;
18659;SDS011;9459;50.254;19.014;2023-04-25T03:53:02;6.47;;;3.60;;
18659;SDS011;9459;50.254;19.014;2023-04-25T03:55:30;8.27;;;4.03;;
18659;SDS011;9459;50.254;19.014;2023-04-25T03:58:00;6.70;;;4.38;;
18659;SDS011;9459;50.254;19.014;2023-04-25T04:00:28;7.40;;;4.38;;
18659;SDS011;9459;50.254;19.014;2023-04-25T04:02:57;6.57;;;4.05;;
18659;SDS011;9459;50.254;19.014;2023-04-25T04:05:25;7.32;;;4.00;;
18659;SDS011;9459;50.254;19.014;2023-04-25T04:07:54;7.80;;;4.38;;
18659;SDS011;9459;50.254;19.014;2023-04-25T04:10:22;6.07;;;4.00;;
18659;SDS011;9459;50.254;19.014;2023-04-25T04:12:52;7.82;;;4.45;;
18659;SDS011;9459;50.254;19.014;2023-04-25T04:15:22;8.27;;;4.13;;
18659;SDS011;9459;50.254;19.014;2023-04-25T04:17:50;7.43;;;3.78;;
18659;SDS011;9459;50.254;19.014;2023-04-25T04:20:19;4.60;;;3.13;;
18659;SDS011;9459;50.254;19.014;2023-04-25T04:22:47;5.57;;;3.53;;
18659;SDS011;9459;50.254;19.014;2023-04-25T04:25:16;4.30;;;3.13;;
18659;SDS011;9459;50.254;19.014;2023-04-25T04:27:44;5.15;;;3.03;;
18659;SDS011;9459;50.254;19.014;2023-04-25T04:30:13;6.35;;;3.15;;
18659;SDS011;9459;50.254;19.014;2023-04-25T04:32:44;8.02;;;3.40;;
18659;SDS011;9459;50.254;19.014;2023-04-25T04:35:15;3.20;;;2.67;;
18659;SDS011;9459;50.254;19.014;2023-04-25T04:37:44;7.07;;;2.92;;
18659;SDS011;9459;50.254;19.014;2023-04-25T04:40:13;4.10;;;2.85;;
18659;SDS011;9459;50.254;19.014;2023-04-25T04:42:42;4.95;;;3.03;;
18659;SDS011;9459;50.254;19.014;2023-04-25T04:45:12;3.33;;;2.63;;
18659;SDS011;9459;50.254;19.014;2023-04-25T04:47:41;7.95;;;2.83;;
18659;SDS011;9459;50.254;19.014;2023-04-25T04:50:11;6.93;;;3.33;;
18659;SDS011;9459;50.254;19.014;2023-04-25T04:52:40;4.95;;;3.58;;
18659;SDS011;9459;50.254;19.014;2023-04-25T04:55:08;5.57;;;3.38;;
18659;SDS011;9459;50.254;19.014;2023-04-25T04:57:37;6.70;;;3.10;;
18659;SDS011;9459;50.254;19.014;2023-04-25T05:00:06;7.20;;;3.75;;
18659;SDS011;9459;50.254;19.014;2023-04-25T05:02:41;6.90;;;4.00;;
18659;SDS011;9459;50.254;19.014;2023-04-25T05:05:11;4.47;;;3.47;;
18659;SDS011;9459;50.254;19.014;2023-04-25T05:07:39;5.75;;;3.28;;
18659;SDS011;9459;50.254;19.014;2023-04-25T05:10:08;4.63;;;3.20;;
18659;SDS011;9459;50.254;19.014;2023-04-25T05:12:37;4.93;;;3.45;;
18659;SDS011;9459;50.254;19.014;2023-04-25T05:15:06;6.22;;;3.80;;
18659;SDS011;9459;50.254;19.014;2023-04-25T05:17:35;5.88;;;4.30;;
18659;SDS011;9459;50.254;19.014;2023-04-25T05:20:03;5.90;;;3.70;;
18659;SDS011;9459;50.254;19.014;2023-04-25T05:22:35;4.82;;;3.30;;
18659;SDS011;9459;50.254;19.014;2023-04-25T05:25:04;4.22;;;3.42;;
18659;SDS011;9459;50.254;19.014;2023-04-25T05:27:34;3.38;;;2.88;;
18659;SDS011;9459;50.254;19.014;2023-04-25T05:30:02;5.07;;;3.33;;
18659;SDS011;9459;50.254;19.014;2023-04-25T05:32:31;7.97;;;3.80;;
18659;SDS011;9459;50.254;19.014;2023-04-25T05:34:59;5.38;;;3.75;;
18659;SDS011;9459;50.254;19.014;2023-04-25T05:37:28;4.88;;;3.28;;
18659;SDS011;9459;50.254;19.014;2023-04-25T05:39:59;4.57;;;3.40;;
18659;SDS011;9459;50.254;19.014;2023-04-25T05:42:27;6.70;;;3.08;;
18659;SDS011;9459;50.254;19.014;2023-04-25T05:44:55;5.97;;;3.78;;
18659;SDS011;9459;50.254;19.014;2023-04-25T05:47:24;4.70;;;3.13;;
18659;SDS011;9459;50.254;19.014;2023-04-25T05:49:52;4.45;;;3.30;;
18659;SDS011;9459;50.254;19.014;2023-04-25T05:52:21;4.05;;;3.33;;
18659;SDS011;9459;50.254;19.014;2023-04-25T05:54:49;4.65;;;3.30;;
18659;SDS011;9459;50.254;19.014;2023-04-25T05:57:20;4.70;;;3.20;;
18659;SDS011;9459;50.254;19.014;2023-04-25T05:59:50;5.60;;;3.50;;
18659;SDS011;9459;50.254;19.014;2023-04-25T06:02:19;5.78;;;2.97;;
18659;SDS011;9459;50.254;19.014;2023-04-25T06:04:49;4.38;;;3.35;;
18659;SDS011;9459;50.254;19.014;2023-04-25T06:07:18;4.05;;;3.08;;
18659;SDS011;9459;50.254;19.014;2023-04-25T06:09:47;5.72;;;3.22;;
18659;SDS011;9459;50.254;19.014;2023-04-25T06:12:16;4.90;;;3.30;;
18659;SDS011;9459;50.254;19.014;2023-04-25T06:14:45;3.78;;;2.78;;
18659;SDS011;9459;50.254;19.014;2023-04-25T06:17:14;8.00;;;4.15;;
18659;SDS011;9459;50.254;19.014;2023-04-25T06:19:42;5.07;;;4.25;;
18659;SDS011;9459;50.254;19.014;2023-04-25T06:22:11;5.53;;;3.92;;
18659;SDS011;9459;50.254;19.014;2023-04-25T06:24:39;5.40;;;4.22;;
18659;SDS011;9459;50.254;19.014;2023-04-25T06:27:08;4.15;;;3.10;;
18659;SDS011;9459;50.254;19.014;2023-04-25T06:29:36;4.63;;;3.53;;
18659;SDS011;9459;50.254;19.014;2023-04-25T06:32:06;7.47;;;5.72;;
18659;SDS011;9459;50.254;19.014;2023-04-25T06:34:34;14.32;;;6.63;;
18659;SDS011;9459;50.254;19.014;2023-04-25T06:37:03;6.05;;;4.50;;
18659;SDS011;9459;50.254;19.014;2023-04-25T06:39:31;6.38;;;4.43;;
18659;SDS011;9459;50.254;19.014;2023-04-25T06:42:00;4.47;;;4.07;;
18659;SDS011;9459;50.254;19.014;2023-04-25T06:44:28;5.28;;;4.20;;
18659;SDS011;9459;50.254;19.014;2023-04-25T06:46:57;6.82;;;4.38;;
18659;SDS011;9459;50.254;19.014;2023-04-25T06:49:27;6.63;;;4.50;;
18659;SDS011;9459;50.254;19.014;2023-04-25T06:51:55;8.25;;;4.28;;
18659;SDS011;9459;50.254;19.014;2023-04-25T06:54:24;4.40;;;3.50;;
18659;SDS011;9459;50.254;19.014;2023-04-25T06:56:54;7.63;;;4.03;;
18659;SDS011;9459;50.254;19.014;2023-04-25T06:59:22;5.47;;;3.72;;
18659;SDS011;9459;50.254;19.014;2023-04-25T07:01:51;4.38;;;3.42;;
18659;SDS011;9459;50.254;19.014;2023-04-25T07:04:19;4.78;;;3.47;;
18659;SDS011;9459;50.254;19.014;2023-04-25T07:06:49;4.20;;;3.08;;
18659;SDS011;9459;50.254;19.014;2023-04-25T07:09:17;5.00;;;3.30;;
18659;SDS011;9459;50.254;19.014;2023-04-25T07:11:46;9.50;;;6.22;;
18659;SDS011;9459;50.254;19.014;2023-04-25T07:14:14;6.35;;;4.00;;
18659;SDS011;9459;50.254;19.014;2023-04-25T07:16:43;7.10;;;4.18;;
18659;SDS011;9459;50.254;19.014;2023-04-25T07:19:11;6.47;;;5.40;;
18659;SDS011;9459;50.254;19.014;2023-04-25T07:21:39;5.38;;;4.18;;
18659;SDS011;9459;50.254;19.014;2023-04-25T07:24:09;5.15;;;3.33;;
18659;SDS011;9459;50.254;19.014;2023-04-25T07:26:38;5.88;;;4.15;;
18659;SDS011;9459;50.254;19.014;2023-04-25T07:29:06;5.55;;;4.20;;
18659;SDS011;9459;50.254;19.014;2023-04-25T07:31:34;11.48;;;4.07;;
18659;SDS011;9459;50.254;19.014;2023-04-25T07:34:03;8.23;;;3.90;;
18659;SDS011;9459;50.254;19.014;2023-04-25T07:36:32;7.40;;;3.83;;
18659;SDS011;9459;50.254;19.014;2023-04-25T07:39:00;5.05;;;4.07;;
18659;SDS011;9459;50.254;19.014;2023-04-25T07:41:30;5.93;;;3.70;;
18659;SDS011;9459;50.254;19.014;2023-04-25T07:43:59;7.18;;;4.32;;
18659;SDS011;9459;50.254;19.014;2023-04-25T07:46:27;7.03;;;4.65;;
18659;SDS011;9459;50.254;19.014;2023-04-25T07:48:56;9.93;;;4.95;;
18659;SDS011;9459;50.254;19.014;2023-04-25T07:51:24;12.75;;;5.35;;
18659;SDS011;9459;50.254;19.014;2023-04-25T07:53:53;9.43;;;4.45;;
18659;SDS011;9459;50.254;19.014;2023-04-25T07:56:21;9.40;;;4.72;;
18659;SDS011;9459;50.254;19.014;2023-04-25T07:58:51;8.45;;;4.90;;
18659;SDS011;9459;50.254;19.014;2023-04-25T08:01:20;4.80;;;3.92;;
18659;SDS011;9459;50.254;19.014;2023-04-25T08:03:48;6.72;;;4.65;;
18659;SDS011;9459;50.254;19.014;2023-04-25T08:06:17;7.63;;;4.28;;
18659;SDS011;9459;50.254;19.014;2023-04-25T08:08:46;7.82;;;4.60;;
18659;SDS011;9459;50.254;19.014;2023-04-25T08:11:15;4.10;;;3.22;;
18659;SDS011;9459;50.254;19.014;2023-04-25T08:13:43;7.72;;;4.50;;
18659;SDS011;9459;50.254;19.014;2023-04-25T08:16:13;4.38;;;3.15;;
18659;SDS011;9459;50.254;19.014;2023-04-25T08:18:41;4.57;;;3.22;;
18659;SDS011;9459;50.254;19.014;2023-04-25T08:21:10;5.63;;;4.25;;
18659;SDS011;9459;50.254;19.014;2023-04-25T08:23:39;6.53;;;3.72;;
18659;SDS011;9459;50.254;19.014;2023-04-25T08:26:07;5.88;;;3.53;;
18659;SDS011;9459;50.254;19.014;2023-04-25T08:28:35;3.83;;;3.20;;
18659;SDS011;9459;50.254;19.014;2023-04-25T08:31:04;4.53;;;3.05;;
18659;SDS011;9459;50.254;19.014;2023-04-25T08:33:34;4.93;;;3.13;;
18659;SDS011;9459;50.254;19.014;2023-04-25T08:36:03;3.88;;;2.97;;
18659;SDS011;9459;50.254;19.014;2023-04-25T08:38:32;5.53;;;2.80;;
18659;SDS011;9459;50.254;19.014;2023-04-25T08:41:00;15.90;;;8.50;;
18659;SDS011;9459;50.254;19.014;2023-04-25T08:43:29;6.80;;;4.22;;
18659;SDS011;9459;50.254;19.014;2023-04-25T08:45:59;4.80;;;2.72;;
18659;SDS011;9459;50.254;19.014;2023-04-25T08:48:27;3.17;;;2.22;;
18659;SDS011;9459;50.254;19.014;2023-04-25T08:50:58;4.90;;;3.45;;
18659;SDS011;9459;50.254;19.014;2023-04-25T08:53:27;3.33;;;2.35;;
18659;SDS011;9459;50.254;19.014;2023-04-25T08:55:57;5.15;;;2.80;;
18659;SDS011;9459;50.254;19.014;2023-04-25T08:58:28;4.65;;;3.20;;
18659;SDS011;9459;50.254;19.014;2023-04-25T09:00:56;5.22;;;3.42;;
18659;SDS011;9459;50.254;19.014;2023-04-25T09:03:25;3.35;;;2.88;;
18659;SDS011;9459;50.254;19.014;2023-04-25T09:05:54;3.78;;;2.80;;
18659;SDS011;9459;50.254;19.014;2023-04-25T09:08:24;4.15;;;3.22;;
18659;SDS011;9459;50.254;19.014;2023-04-25T09:10:52;5.35;;;3.05;;
18659;SDS011;9459;50.254;19.014;2023-04-25T09:13:24;5.97;;;2.83;;
18659;SDS011;9459;50.254;19.014;2023-04-25T09:15:54;5.45;;;2.92;;
18659;SDS011;9459;50.254;19.014;2023-04-25T09:18:23;3.58;;;2.80;;
18659;SDS011;9459;50.254;19.014;2023-04-25T09:20:58;8.32;;;3.38;;
18659;SDS011;9459;50.254;19.014;2023-04-25T09:23:43;5.22;;;2.83;;
18659;SDS011;9459;50.254;19.014;2023-04-25T09:26:14;4.32;;;3.30;;
18659;SDS011;9459;50.254;19.014;2023-04-25T09:28:43;5.90;;;3.58;;
18659;SDS011;9459;50.254;19.014;2023-04-25T09:31:20;6.03;;;3.72;;
18659;SDS011;9459;50.254;19.014;2023-04-25T09:33:49;4.88;;;3.65;;
18659;SDS011;9459;50.254;19.014;2023-04-25T09:36:23;6.43;;;3.65;;
18659;SDS011;9459;50.254;19.014;2023-04-25T09:38:55;4.78;;;3.20;;
18659;SDS011;9459;50.254;19.014;2023-04-25T09:41:24;3.90;;;3.03;;
18659;SDS011;9459;50.254;19.014;2023-04-25T09:43:56;6.03;;;4.50;;
18659;SDS011;9459;50.254;19.014;2023-04-25T09:46:24;5.63;;;4.03;;
18659;SDS011;9459;50.254;19.014;2023-04-25T09:48:53;4.50;;;3.20;;
18659;SDS011;9459;50.254;19.014;2023-04-25T09:51:22;5.25;;;3.53;;
18659;SDS011;9459;50.254;19.014;2023-04-25T09:53:53;6.25;;;3.50;;
18659;SDS011;9459;50.254;19.014;2023-04-25T09:56:23;5.05;;;3.00;;
18659;SDS011;9459;50.254;19.014;2023-04-25T09:58:52;4.32;;;2.65;;
18659;SDS011;9459;50.254;19.014;2023-04-25T10:01:21;3.95;;;2.88;;
18659;SDS011;9459;50.254;19.014;2023-04-25T10:03:51;5.45;;;2.85;;
18659;SDS011;9459;50.254;19.014;2023-04-25T10:06:20;4.07;;;2.10;;
18659;SDS011;9459;50.254;19.014;2023-04-25T10:08:50;2.60;;;1.92;;
18659;SDS011;9459;50.254;19.014;2023-04-25T10:11:21;4.72;;;2.78;;
18659;SDS011;9459;50.254;19.014;2023-04-25T10:16:20;4.18;;;2.58;;
18659;SDS011;9459;50.254;19.014;2023-04-25T10:18:49;3.85;;;2.30;;
18659;SDS011;9459;50.254;19.014;2023-04-25T10:21:18;4.93;;;2.78;;
18659;SDS011;9459;50.254;19.014;2023-04-25T10:23:47;7.95;;;3.00;;
18659;SDS011;9459;50.254;19.014;2023-04-25T10:26:17;5.10;;;2.72;;
18659;SDS011;9459;50.254;19.014;2023-04-25T10:28:56;3.95;;;2.65;;
18659;SDS011;9459;50.254;19.014;2023-04-25T10:31:25;5.57;;;3.75;;
18659;SDS011;9459;50.254;19.014;2023-04-25T10:33:54;4.15;;;2.90;;
18659;SDS011;9459;50.254;19.014;2023-04-25T10:36:25;5.25;;;3.13;;
18659;SDS011;9459;50.254;19.014;2023-04-25T10:38:54;8.07;;;3.67;;
18659;SDS011;9459;50.254;19.014;2023-04-25T10:41:24;6.07;;;3.25;;
18659;SDS011;9459;50.254;19.014;2023-04-25T10:43:59;6.72;;;3.53;;
18659;SDS011;9459;50.254;19.014;2023-04-25T10:46:29;6.25;;;3.97;;
18659;SDS011;9459;50.254;19.014;2023-04-25T10:48:58;7.00;;;3.58;;
18659;SDS011;9459;50.254;19.014;2023-04-25T10:51:28;4.70;;;2.58;;
18659;SDS011;9459;50.254;19.014;2023-04-25T10:54:16;8.10;;;3.55;;
18659;SDS011;9459;50.254;19.014;2023-04-25T10:56:48;6.30;;;4.20;;
18659;SDS011;9459;50.254;19.014;2023-04-25T10:59:18;4.95;;;3.42;;
18659;SDS011;9459;50.254;19.014;2023-04-25T11:01:49;5.05;;;2.80;;
18659;SDS011;9459;50.254;19.014;2023-04-25T11:04:22;4.65;;;2.80;;
18659;SDS011;9459;50.254;19.014;2023-04-25T11:06:58;3.55;;;2.25;;
18659;SDS011;9459;50.254;19.014;2023-04-25T11:09:33;2.33;;;1.60;;
18659;SDS011;9459;50.254;19.014;2023-04-25T11:12:02;2.80;;;1.70;;
18659;SDS011;9459;50.254;19.014;2023-04-25T11:14:32;4.70;;;2.10;;
18659;SDS011;9459;50.254;19.014;2023-04-25T11:17:01;3.70;;;1.85;;
18659;SDS011;9459;50.254;19.014;2023-04-25T11:19:30;3.58;;;2.05;;
18659;SDS011;9459;50.254;19.014;2023-04-25T11:21:59;2.13;;;1.65;;
18659;SDS011;9459;50.254;19.014;2023-04-25T11:24:29;3.35;;;1.83;;
18659;SDS011;9459;50.254;19.014;2023-04-25T11:26:59;5.70;;;2.10;;
18659;SDS011;9459;50.254;19.014;2023-04-25T11:29:29;2.28;;;1.55;;
18659;SDS011;9459;50.254;19.014;2023-04-25T11:32:00;4.22;;;2.00;;
18659;SDS011;9459;50.254;19.014;2023-04-25T11:34:29;4.50;;;1.77;;
18659;SDS011;9459;50.254;19.014;2023-04-25T11:36:58;2.35;;;1.48;;
18659;SDS011;9459;50.254;19.014;2023-04-25T11:39:27;1.70;;;1.48;;
18659;SDS011;9459;50.254;19.014;2023-04-25T11:41:56;5.55;;;2.22;;
18659;SDS011;9459;50.254;19.014;2023-04-25T11:44:26;3.20;;;1.80;;
18659;SDS011;9459;50.254;19.014;2023-04-25T11:46:56;4.00;;;2.10;;
18659;SDS011;9459;50.254;19.014;2023-04-25T11:49:26;5.03;;;2.53;;
18659;SDS011;9459;50.254;19.014;2023-04-25T11:51:58;3.72;;;2.05;;
18659;SDS011;9459;50.254;19.014;2023-04-25T11:54:26;4.53;;;1.90;;
18659;SDS011;9459;50.254;19.014;2023-04-25T11:56:55;4.28;;;2.40;;
18659;SDS011;9459;50.254;19.014;2023-04-25T11:59:24;4.88;;;2.17;;
18659;SDS011;9459;50.254;19.014;2023-04-25T12:01:53;4.57;;;3.15;;
18659;SDS011;9459;50.254;19.014;2023-04-25T12:04:22;8.55;;;3.55;;
18659;SDS011;9459;50.254;19.014;2023-04-25T12:06:53;3.80;;;2.28;;
18659;SDS011;9459;50.254;19.014;2023-04-25T12:09:27;3.83;;;2.25;;
18659;SDS011;9459;50.254;19.014;2023-04-25T12:11:57;3.25;;;2.20;;
18659;SDS011;9459;50.254;19.014;2023-04-25T12:14:30;4.90;;;2.38;;
18659;SDS011;9459;50.254;19.014;2023-04-25T12:17:00;4.07;;;2.20;;
18659;SDS011;9459;50.254;19.014;2023-04-25T12:19:32;2.78;;;2.00;;
18659;SDS011;9459;50.254;19.014;2023-04-25T12:22:03;5.18;;;2.38;;
18659;SDS011;9459;50.254;19.014;2023-04-25T12:24:33;3.83;;;2.15;;
18659;SDS011;9459;50.254;19.014;2023-04-25T12:27:05;3.92;;;2.15;;
18659;SDS011;9459;50.254;19.014;2023-04-25T12:29:35;5.15;;;1.90;;
18659;SDS011;9459;50.254;19.014;2023-04-25T12:32:15;3.80;;;2.30;;
18659;SDS011;9459;50.254;19.014;2023-04-25T12:34:44;5.78;;;2.50;;
18659;SDS011;9459;50.254;19.014;2023-04-25T12:37:14;7.00;;;3.97;;
18659;SDS011;9459;50.254;19.014;2023-04-25T12:39:42;5.15;;;2.85;;
18659;SDS011;9459;50.254;19.014;2023-04-25T12:42:11;4.93;;;2.58;;
18659;SDS011;9459;50.254;19.014;2023-04-25T12:44:39;5.15;;;2.38;;
18659;SDS011;9459;50.254;19.014;2023-04-25T12:47:08;3.20;;;2.00;;
18659;SDS011;9459;50.254;19.014;2023-04-25T12:49:37;4.35;;;2.50;;
18659;SDS011;9459;50.254;19.014;2023-04-25T12:52:05;4.63;;;2.78;;
18659;SDS011;9459;50.254;19.014;2023-04-25T12:54:35;4.00;;;2.55;;
18659;SDS011;9459;50.254;19.014;2023-04-25T12:57:03;4.18;;;2.53;;
18659;SDS011;9459;50.254;19.014;2023-04-25T12:59:32;4.80;;;2.85;;
18659;SDS011;9459;50.254;19.014;2023-04-25T13:02:00;5.88;;;3.47;;
18659;SDS011;9459;50.254;19.014;2023-04-25T13:04:29;5.15;;;3.17;;
18659;SDS011;9459;50.254;19.014;2023-04-25T13:06:58;7.35;;;4.00;;
18659;SDS011;9459;50.254;19.014;2023-04-25T13:09:26;5.53;;;3.60;;
18659;SDS011;9459;50.254;19.014;2023-04-25T13:11:56;5.57;;;2.90;;
18659;SDS011;9459;50.254;19.014;2023-04-25T13:14:25;5.55;;;2.95;;
18659;SDS011;9459;50.254;19.014;2023-04-25T13:16:53;6.72;;;3.90;;
18659;SDS011;9459;50.254;19.014;2023-04-25T13:19:22;4.30;;;3.17;;
18659;SDS011;9459;50.254;19.014;2023-04-25T13:21:50;5.07;;;2.83;;
18659;SDS011;9459;50.254;19.014;2023-04-25T13:24:19;4.80;;;3.15;;
18659;SDS011;9459;50.254;19.014;2023-04-25T13:26:47;5.03;;;2.80;;
18659;SDS011;9459;50.254;19.014;2023-04-25T13:29:17;7.30;;;3.08;;
18659;SDS011;9459;50.254;19.014;2023-04-25T13:31:45;5.70;;;2.70;;
18659;SDS011;9459;50.254;19.014;2023-04-25T13:34:14;3.22;;;2.20;;
18659;SDS011;9459;50.254;19.014;2023-04-25T13:36:42;3.85;;;2.80;;
18659;SDS011;9459;50.254;19.014;2023-04-25T13:39:12;4.78;;;2.88;;
18659;SDS011;9459;50.254;19.014;2023-04-25T13:41:41;3.63;;;2.35;;
18659;SDS011;9459;50.254;19.014;2023-04-25T13:44:10;4.80;;;2.75;;
18659;SDS011;9459;50.254;19.014;2023-04-25T13:46:41;5.32;;;2.67;;
18659;SDS011;9459;50.254;19.014;2023-04-25T13:49:13;5.43;;;2.65;;
18659;SDS011;9459;50.254;19.014;2023-04-25T13:51:42;5.15;;;2.30;;
18659;SDS011;9459;50.254;19.014;2023-04-25T13:54:10;3.90;;;2.30;;
18659;SDS011;9459;50.254;19.014;2023-04-25T13:56:39;3.53;;;2.80;;
18659;SDS011;9459;50.254;19.014;2023-04-25T13:59:09;3.97;;;2.78;;
18659;SDS011;9459;50.254;19.014;2023-04-25T14:01:38;3.25;;;2.45;;
18659;SDS011;9459;50.254;19.014;2023-04-25T14:04:08;6.97;;;2.83;;
18659;SDS011;9459;50.254;19.014;2023-04-25T14:06:37;3.88;;;2.10;;
18659;SDS011;9459;50.254;19.014;2023-04-25T14:09:05;4.97;;;3.20;;
18659;SDS011;9459;50.254;19.014;2023-04-25T14:11:37;7.75;;;3.70;;
18659;SDS011;9459;50.254;19.014;2023-04-25T14:14:05;7.47;;;4.45;;
18659;SDS011;9459;50.254;19.014;2023-04-25T14:16:33;5.53;;;2.83;;
18659;SDS011;9459;50.254;19.014;2023-04-25T14:19:02;4.47;;;2.53;;
18659;SDS011;9459;50.254;19.014;2023-04-25T14:21:32;5.00;;;2.40;;
18659;SDS011;9459;50.254;19.014;2023-04-25T14:24:00;4.82;;;2.60;;
18659;SDS011;9459;50.254;19.014;2023-04-25T14:26:28;4.90;;;2.50;;
18659;SDS011;9459;50.254;19.014;2023-04-25T14:28:57;5.07;;;2.47;;
18659;SDS011;9459;50.254;19.014;2023-04-25T14:31:25;4.38;;;2.30;;
18659;SDS011;9459;50.254;19.014;2023-04-25T14:33:54;4.97;;;2.20;;
18659;SDS011;9459;50.254;19.014;2023-04-25T14:38:55;3.55;;;2.13;;
18659;SDS011;9459;50.254;19.014;2023-04-25T14:41:24;4.60;;;2.55;;
18659;SDS011;9459;50.254;19.014;2023-04-25T14:43:52;5.90;;;2.67;;
18659;SDS011;9459;50.254;19.014;2023-04-25T14:46:21;4.22;;;1.90;;
18659;SDS011;9459;50.254;19.014;2023-04-25T14:48:49;4.65;;;2.22;;
18659;SDS011;9459;50.254;19.014;2023-04-25T14:51:19;4.78;;;2.13;;
18659;SDS011;9459;50.254;19.014;2023-04-25T14:53:47;4.20;;;2.13;;
18659;SDS011;9459;50.254;19.014;2023-04-25T14:56:19;2.47;;;2.08;;
18659;SDS011;9459;50.254;19.014;2023-04-25T14:58:47;3.45;;;2.42;;
18659;SDS011;9459;50.254;19.014;2023-04-25T15:01:16;3.80;;;2.25;;
18659;SDS011;9459;50.254;19.014;2023-04-25T15:03:44;5.07;;;2.40;;
18659;SDS011;9459;50.254;19.014;2023-04-25T15:06:13;4.43;;;2.70;;